Station: Ngayawili (Elcho Island)

  Atmospheric Gas Attenuation - ITU Rec 676-11   --------------- db/100km ---------------
Date Time Temp RH % AH g/m3 Dew Point Wind Direction Speed kph Gust kph Barometer mB Rainfall Since 9am 24GHz 47GHz 76GHz 122GHz 134GHz 241GHz
11 21:40 25.7 100 23.94 25.7 9 9 1011.3 8.8 51.4 49.5 101.0 267.4 302.6 1051.1
11 21:30 25.7 100 23.94 25.7 7 9 1011.3 8.8 51.4 49.5 101.0 267.4 302.6 1051.1
11 21:20 26 100 24.35 26 7 9 1011.4 8.8 52.3 50.2 102.7 272.1 308.4 1071.4
11 21:10 25.9 100 24.21 25.9 7 7 1011.3 8.8 52.0 49.9 102.1 270.5 306.4 1064.4
11 21:00 25.9 100 24.21 25.9 7 9 1011.2 8.8 52.0 49.9 102.1 270.5 306.4 1064.3
11 20:50 25.9 100 24.21 25.9 7 7 1011.2 8.8 52.0 49.9 102.1 270.5 306.4 1064.3
11 20:40 25.8 100 24.08 25.8 9 11 1011 8.8 51.7 49.7 101.6 269.0 304.5 1057.8
11 20:30 25.6 100 23.81 25.6 9 11 1010.8 8.8 51.2 49.3 100.4 265.9 300.7 1044.4
11 20:20 25.5 100 23.67 25.5 7 9 1010.6 8.8 50.9 49.0 99.8 264.2 298.7 1037.4
11 20:10 25.5 100 23.67 25.5 9 9 1010.4 8.8 50.9 49.0 99.8 264.2 298.6 1037.3
11 20:00 25.5 100 23.67 25.5 9 9 1010.3 8.8 50.9 49.0 99.7 264.2 298.6 1037.2
11 19:50 25.5 100 23.67 25.5 7 7 1010 8.8 50.9 49.0 99.7 264.1 298.5 1037.0
11 19:40 25.5 100 23.67 25.5 7 9 1009.9 8.8 50.9 49.0 99.7 264.1 298.5 1036.9
11 19:30 25.3 100 23.41 25.3 11 13 1009.6 8.8 50.4 48.5 98.6 261.1 294.8 1024.1
11 19:20 25 100 23.02 25 13 13 1009.5 8.8 49.6 47.9 96.9 256.7 289.4 1005.1
11 19:10 24.7 100 22.63 24.7 9 9 1009.3 8.8 48.8 47.2 95.3 252.3 283.9 986.1
11 19:00 24.6 99 22.28 24.4 9 11 1009.4 8.8 48.0 46.6 93.6 247.9 278.4 967.0
11 18:50 24.5 98 21.93 24.2 11 11 1009.7 8.6 47.3 45.9 92.0 243.5 273.0 948.1
11 18:40 24.5 97 21.71 24 13 24 1009.9 7.8 46.8 45.5 90.9 240.5 269.3 935.5
11 18:30 24.5 95 21.26 23.6 30 39 1010 6.4 45.9 44.6 88.6 234.5 261.9 909.7
11 18:20 24.7 90 20.37 22.9 30 35 1009.7 2.6 43.9 42.7 83.9 222.0 246.7 857.0
11 18:10 29.5 76 22.43 24.8 22 28 1009.5 0 47.7 44.2 88.4 234.1 262.9 913.7
11 18:00 30.1 73 22.26 24.9 15 19 1008.8 0 47.3 43.5 86.8 229.9 258.0 896.9
11 17:50 30.3 75 23.12 25.4 15 17 1008.3 0 49.1 45.0 90.7 240.2 270.6 940.8
11 17:40 30.3 73 22.5 24.9 15 15 1008.4 0 47.8 43.8 87.7 232.3 260.9 907.2
11 17:30 30.5 73 22.75 25.1 15 17 1008.2 0 48.3 44.2 88.7 234.8 264.1 918.2
11 17:20 30.6 72 22.56 25 15 17 1008.1 0 47.9 43.8 87.6 232.1 260.8 906.7
11 17:10 30.6 71 22.24 24.7 17 19 1008 0 47.2 43.2 86.1 228.0 255.8 889.5
11 17:00 30.8 72 22.8 25.2 17 20 1008 0 48.4 44.1 88.5 234.5 263.8 917.1
11 16:50 30.8 72 22.8 25.2 19 20 1007.9 0 48.4 44.1 88.5 234.5 263.8 917.1
11 16:40 31.1 71 22.85 25.4 19 20 1007.9 0 48.4 44.1 88.4 234.2 263.5 916.1
11 16:30 31.1 71 22.85 25.2 17 20 1007.9 0 48.4 44.1 88.4 234.2 263.5 916.1
11 16:20 31.1 68 21.88 24.7 17 17 1007.8 0 46.4 42.2 83.8 222.1 248.6 864.5
11 16:10 31.6 70 23.14 25.5 15 17 1007.8 0 49.0 44.3 89.2 236.3 266.2 925.5
11 16:00 31.4 68 22.24 24.8 15 19 1007.8 0 47.1 42.7 85.2 225.6 253.1 880.0
11 15:50 31.3 69 22.45 24.9 15 15 1007.8 0 47.6 43.2 86.3 228.5 256.6 892.3
11 15:40 31.3 69 22.45 24.9 15 17 1007.8 0 47.6 43.2 86.3 228.5 256.6 892.3
11 15:30 31.1 68 21.88 24.5 15 17 1008 0 46.4 42.2 83.9 222.1 248.7 864.6
11 15:20 31.4 68 22.24 24.8 15 17 1008.1 0 47.1 42.8 85.2 225.7 253.1 880.2
11 15:10 31.5 68 22.36 24.9 13 17 1008.1 0 47.3 42.9 85.7 226.9 254.6 885.4
11 15:00 31.2 68 22 24.6 13 17 1008.2 0 46.6 42.4 84.3 223.3 250.2 869.9
11 14:50 31.2 68 22 24.6 11 13 1008.3 0 46.6 42.4 84.3 223.3 250.2 870.0
11 14:40 31.4 69 22.57 25 15 17 1008.4 0 47.8 43.4 86.8 229.8 258.2 897.8
11 14:30 31.8 69 23.05 25.6 11 15 1008.6 0 48.8 44.1 88.6 234.6 264.2 918.8
11 14:20 31.4 69 22.57 25 11 13 1008.7 0 47.8 43.4 86.8 229.9 258.3 898.0
11 14:10 31.2 70 22.65 25.1 11 11 1008.8 0 48.0 43.7 87.4 231.5 260.2 904.7
11 14:00 31.1 68 21.88 24.7 13 17 1008.8 0 46.4 42.3 83.9 222.2 248.8 865.1
11 13:50 31.3 71 23.1 25.4 15 15 1008.9 0 48.9 44.5 89.4 236.9 266.8 927.7
11 13:40 31.1 71 22.85 25.2 13 15 1009 0 48.4 44.1 88.5 234.4 263.7 916.8
11 13:30 31.2 71 22.97 25.3 15 17 1009.1 0 48.7 44.3 88.9 235.6 265.2 922.1
11 13:20 31.3 70 22.77 25.2 13 13 1009.2 0 48.2 43.9 87.9 232.8 261.8 910.2
11 13:10 31.3 71 23.1 25.6 13 15 1009.4 0 48.9 44.5 89.5 237.0 266.9 928.0
11 13:00 31.2 71 22.97 25.5 11 15 1009.5 0 48.7 44.3 89.0 235.7 265.3 922.3
11 12:50 31.1 70 22.53 25 11 11 1009.6 0 47.7 43.5 87.0 230.4 258.8 900.0
11 12:40 31.3 71 23.1 25.6 11 13 1009.7 0 48.9 44.5 89.5 237.0 266.9 928.2
11 12:30 31.2 71 22.97 25.5 13 15 1009.9 0 48.7 44.3 89.0 235.7 265.3 922.5
11 12:20 30.9 73 23.24 25.5 11 13 1009.9 0 49.3 45.0 90.6 240.1 270.6 940.9
11 12:10 31.1 75 24.14 26.1 11 15 1010.1 0 51.1 46.6 94.8 251.1 284.1 987.8
11 12:00 31 72 23.05 25.4 11 13 1010.2 0 48.8 44.6 89.6 237.4 267.3 929.5
11 11:50 31 74 23.69 25.8 9 9 1010.4 0 50.2 45.8 92.7 245.6 277.4 964.5
11 11:40 31 74 23.69 25.8 13 13 1010.4 0 50.2 45.8 92.7 245.6 277.4 964.5
11 11:30 31.2 74 23.94 26 11 13 1010.6 0 50.7 46.2 93.7 248.2 280.6 975.8
11 11:20 30.7 73 22.99 25.3 11 11 1010.7 0 48.7 44.7 89.7 237.7 267.6 930.2
11 11:10 30.9 72 22.92 25.3 7 9 1010.7 0 48.6 44.4 89.2 236.2 265.7 924.0
11 11:00 30.8 72 22.8 25.2 11 13 1010.8 0 48.3 44.2 88.7 235.0 264.3 918.8
11 10:50 30.8 71 22.48 24.9 9 11 1011 0 47.7 43.6 87.2 231.0 259.3 901.7
11 10:40 30.8 72 22.8 25.2 11 13 1011.1 0 48.3 44.3 88.7 235.0 264.3 919.0
11 10:30 31.2 75 24.27 26.2 13 15 1011 0 51.4 46.9 95.4 252.6 286.0 994.3
11 10:20 31 74 23.69 25.8 13 15 1011.2 0 50.2 45.9 92.8 245.8 277.5 965.0
11 10:10 31.1 76 24.46 26.4 13 15 1011.3 0 51.8 47.3 96.4 255.5 289.5 1006.3
11 10:00 30.8 74 23.43 25.8 13 15 1011.3 0 49.7 45.5 91.8 243.1 274.2 953.4
11 09:50 30.7 77 24.25 26.2 13 17 1011.3 0 51.4 47.1 95.9 254.1 287.6 1000.0
11 09:40 30.5 78 24.31 26.2 11 13 1011.4 0 51.5 47.4 96.5 255.6 289.4 1006.1
11 09:30 30.4 78 24.17 26.1 13 17 1011.4 0 51.3 47.2 95.9 254.1 287.5 999.6
11 09:20 30.4 79 24.48 26.3 13 15 1011.4 0 51.9 47.8 97.5 258.1 292.6 1017.0
11 09:10 29.8 81 24.3 26.2 13 15 1011.3 0 51.6 47.8 97.3 257.8 292.0 1014.9
11 09:00 29.3 83 24.24 26.1 15 19 1011.2 0 51.6 47.9 97.7 258.7 293.0 1018.3
11 08:50 29.4 85 24.96 26.6 17 19 1011.2 9.4 53.1 49.3 101.2 268.1 304.5 1058.2
11 08:40 29 85 24.42 26.2 17 17 1011.2 9.4 52.0 48.5 99.0 262.2 297.1 1032.7
11 08:30 29.1 86 24.84 26.5 17 20 1011.1 9.4 52.9 49.3 101.0 267.5 303.7 1055.4
11 08:20 29.3 89 25.99 27.3 15 19 1011 9.4 55.3 51.5 106.7 282.6 322.2 1119.7
11 08:10 28.5 87 24.32 26.1 19 20 1010.9 9.4 51.9 48.6 99.1 262.5 297.4 1033.7
11 08:00 28.5 89 24.88 26.5 19 22 1010.8 9.4 53.0 49.7 102.0 270.2 306.8 1066.1
11 07:50 28.3 90 24.88 26.5 20 22 1010.7 9.4 53.1 49.8 102.3 270.9 307.6 1069.0
11 07:40 28 100 27.2 28 17 19 1010.7 9.4 58.1 55.0 115.1 304.9 349.2 1213.2
11 07:30 26.8 100 25.45 26.8 9 13 1010.8 9.4 54.5 52.0 107.4 284.6 323.9 1125.3
11 07:20 26.2 26.4 9 9 1010.9 9.4
11 07:10 26 26.2 9 9 1010.8 9.4
11 07:00 25.7 100 23.94 25.7 7 9 1010.6 9.4 51.4 49.5 100.9 267.3 302.5 1050.6
11 06:50 25.4 25.6 7 9 1010.5 9.4
11 06:40 25.5 25.7 7 9 1010.3 9.4
11 06:30 25.5 100 23.67 25.5 9 11 1010.2 9.4 50.9 49.0 99.7 264.1 298.6 1037.1
11 06:20 25.5 25.7 7 9 1010.1 9.4
11 06:10 25.5 25.7 7 7 1010 9.4
11 06:00 25.6 100 23.81 25.6 7 9 1009.8 9.4 51.2 49.2 100.3 265.7 300.5 1043.8
11 05:50 25.7 25.9 9 9 1009.7 9.4
11 05:40 25.5 25.7 9 9 1009.5 9.4
11 04:50 25.6 100 23.81 25.6 7 7 1009.1 9.4 51.2 49.2 100.3 265.5 300.4 1043.3
11 04:40 25.6 100 23.81 25.6 7 7 1009.2 9.4 51.2 49.2 100.3 265.6 300.4 1043.4
11 04:30 25.4 100 23.54 25.4 6 7 1009.2 9.4 50.6 48.7 99.1 262.5 296.6 1030.2

Last Refresh: 11-Apr-2021 21:50:05

Bureau of Meteorology